sensor_id;sensor_type;location;lat;lon;timestamp;P1;durP1;ratioP1;P2;durP2;ratioP2
26864;SDS011;40618;51.166;10.322;2023-05-10T00:02:06;2.72;;;1.40;;
26864;SDS011;40618;51.166;10.322;2023-05-10T00:04:32;2.88;;;1.40;;
26864;SDS011;40618;51.166;10.322;2023-05-10T00:06:58;1.58;;;1.45;;
26864;SDS011;40618;51.166;10.322;2023-05-10T00:09:24;1.92;;;1.35;;
26864;SDS011;40618;51.166;10.322;2023-05-10T00:11:49;1.75;;;1.33;;
26864;SDS011;40618;51.166;10.322;2023-05-10T00:14:15;2.47;;;1.35;;
26864;SDS011;40618;51.166;10.322;2023-05-10T00:16:41;4.43;;;1.80;;
26864;SDS011;40618;51.166;10.322;2023-05-10T00:19:07;3.78;;;1.20;;
26864;SDS011;40618;51.166;10.322;2023-05-10T00:21:32;2.33;;;1.35;;
26864;SDS011;40618;51.166;10.322;2023-05-10T00:23:58;1.30;;;1.20;;
26864;SDS011;40618;51.166;10.322;2023-05-10T00:26:24;1.95;;;1.33;;
26864;SDS011;40618;51.166;10.322;2023-05-10T00:28:50;2.40;;;1.50;;
26864;SDS011;40618;51.166;10.322;2023-05-10T00:31:16;1.50;;;1.40;;
26864;SDS011;40618;51.166;10.322;2023-05-10T00:33:41;1.98;;;1.40;;
26864;SDS011;40618;51.166;10.322;2023-05-10T00:36:07;3.50;;;1.45;;
26864;SDS011;40618;51.166;10.322;2023-05-10T00:38:33;1.80;;;1.33;;
26864;SDS011;40618;51.166;10.322;2023-05-10T00:40:59;1.58;;;1.30;;
26864;SDS011;40618;51.166;10.322;2023-05-10T00:43:24;2.33;;;1.33;;
26864;SDS011;40618;51.166;10.322;2023-05-10T00:45:50;1.83;;;1.45;;
26864;SDS011;40618;51.166;10.322;2023-05-10T00:48:17;2.10;;;1.27;;
26864;SDS011;40618;51.166;10.322;2023-05-10T00:50:42;1.85;;;1.42;;
26864;SDS011;40618;51.166;10.322;2023-05-10T00:53:08;1.92;;;1.40;;
26864;SDS011;40618;51.166;10.322;2023-05-10T00:55:34;1.83;;;1.42;;
26864;SDS011;40618;51.166;10.322;2023-05-10T00:58:00;3.22;;;1.55;;
26864;SDS011;40618;51.166;10.322;2023-05-10T01:00:26;3.20;;;1.60;;
26864;SDS011;40618;51.166;10.322;2023-05-10T01:02:53;3.95;;;1.70;;
26864;SDS011;40618;51.166;10.322;2023-05-10T01:05:18;2.22;;;1.42;;
26864;SDS011;40618;51.166;10.322;2023-05-10T01:07:44;3.83;;;1.60;;
26864;SDS011;40618;51.166;10.322;2023-05-10T01:10:10;3.03;;;1.27;;
26864;SDS011;40618;51.166;10.322;2023-05-10T01:12:37;2.65;;;1.65;;
26864;SDS011;40618;51.166;10.322;2023-05-10T01:15:08;2.93;;;1.50;;
26864;SDS011;40618;51.166;10.322;2023-05-10T01:17:37;2.65;;;1.70;;
26864;SDS011;40618;51.166;10.322;2023-05-10T01:34:07;2.25;;;1.13;;
26864;SDS011;40618;51.166;10.322;2023-05-10T01:37:02;2.13;;;1.40;;
26864;SDS011;40618;51.166;10.322;2023-05-10T01:39:45;2.28;;;1.55;;
26864;SDS011;40618;51.166;10.322;2023-05-10T01:42:16;3.40;;;1.70;;
26864;SDS011;40618;51.166;10.322;2023-05-10T01:44:53;1.60;;;1.38;;
26864;SDS011;40618;51.166;10.322;2023-05-10T01:47:44;2.20;;;1.65;;
26864;SDS011;40618;51.166;10.322;2023-05-10T01:50:37;3.00;;;1.33;;
26864;SDS011;40618;51.166;10.322;2023-05-10T01:53:08;3.88;;;2.58;;
26864;SDS011;40618;51.166;10.322;2023-05-10T01:55:45;2.78;;;2.10;;
26864;SDS011;40618;51.166;10.322;2023-05-10T01:58:26;6.80;;;4.55;;
26864;SDS011;40618;51.166;10.322;2023-05-10T02:00:58;5.80;;;3.27;;
26864;SDS011;40618;51.166;10.322;2023-05-10T02:03:28;3.65;;;2.63;;
26864;SDS011;40618;51.166;10.322;2023-05-10T02:05:57;5.43;;;3.55;;
26864;SDS011;40618;51.166;10.322;2023-05-10T02:08:24;3.92;;;2.90;;
26864;SDS011;40618;51.166;10.322;2023-05-10T02:10:52;2.67;;;2.05;;
26864;SDS011;40618;51.166;10.322;2023-05-10T02:13:21;3.65;;;2.22;;
26864;SDS011;40618;51.166;10.322;2023-05-10T02:15:49;3.28;;;2.03;;
26864;SDS011;40618;51.166;10.322;2023-05-10T02:18:17;3.25;;;2.45;;
26864;SDS011;40618;51.166;10.322;2023-05-10T02:20:45;4.32;;;2.10;;
26864;SDS011;40618;51.166;10.322;2023-05-10T02:23:12;3.38;;;2.30;;
26864;SDS011;40618;51.166;10.322;2023-05-10T02:25:39;4.10;;;1.95;;
26864;SDS011;40618;51.166;10.322;2023-05-10T02:28:07;2.20;;;1.75;;
26864;SDS011;40618;51.166;10.322;2023-05-10T02:30:36;2.83;;;2.05;;
26864;SDS011;40618;51.166;10.322;2023-05-10T02:33:03;2.10;;;1.85;;
26864;SDS011;40618;51.166;10.322;2023-05-10T02:35:30;2.50;;;2.25;;
26864;SDS011;40618;51.166;10.322;2023-05-10T02:37:58;3.08;;;2.10;;
26864;SDS011;40618;51.166;10.322;2023-05-10T02:40:25;2.50;;;2.20;;
26864;SDS011;40618;51.166;10.322;2023-05-10T02:42:53;5.18;;;2.28;;
26864;SDS011;40618;51.166;10.322;2023-05-10T02:45:23;2.15;;;1.83;;
26864;SDS011;40618;51.166;10.322;2023-05-10T02:47:54;3.17;;;2.28;;
26864;SDS011;40618;51.166;10.322;2023-05-10T02:50:20;2.25;;;2.08;;
26864;SDS011;40618;51.166;10.322;2023-05-10T02:52:47;2.65;;;1.85;;
26864;SDS011;40618;51.166;10.322;2023-05-10T02:55:19;3.03;;;2.53;;
26864;SDS011;40618;51.166;10.322;2023-05-10T02:57:52;2.63;;;2.00;;
26864;SDS011;40618;51.166;10.322;2023-05-10T03:00:24;4.10;;;2.05;;
26864;SDS011;40618;51.166;10.322;2023-05-10T03:02:50;3.38;;;1.85;;
26864;SDS011;40618;51.166;10.322;2023-05-10T03:05:16;2.05;;;1.85;;
26864;SDS011;40618;51.166;10.322;2023-05-10T03:07:41;1.98;;;1.88;;
26864;SDS011;40618;51.166;10.322;2023-05-10T03:10:08;3.28;;;2.00;;
26864;SDS011;40618;51.166;10.322;2023-05-10T03:18:09;2.97;;;2.67;;
26864;SDS011;40618;51.166;10.322;2023-05-10T03:20:47;2.42;;;2.03;;
26864;SDS011;40618;51.166;10.322;2023-05-10T03:25:51;4.20;;;3.20;;
26864;SDS011;40618;51.166;10.322;2023-05-10T03:28:18;4.60;;;3.42;;
26864;SDS011;40618;51.166;10.322;2023-05-10T03:30:45;3.63;;;2.70;;
26864;SDS011;40618;51.166;10.322;2023-05-10T03:33:11;2.92;;;2.47;;
26864;SDS011;40618;51.166;10.322;2023-05-10T03:35:40;2.47;;;2.28;;
26864;SDS011;40618;51.166;10.322;2023-05-10T03:38:06;3.00;;;2.63;;
26864;SDS011;40618;51.166;10.322;2023-05-10T03:40:31;2.55;;;2.35;;
26864;SDS011;40618;51.166;10.322;2023-05-10T03:42:58;3.42;;;2.95;;
26864;SDS011;40618;51.166;10.322;2023-05-10T03:45:24;4.45;;;3.30;;
26864;SDS011;40618;51.166;10.322;2023-05-10T03:47:50;3.95;;;2.97;;
26864;SDS011;40618;51.166;10.322;2023-05-10T03:50:16;3.88;;;2.53;;
26864;SDS011;40618;51.166;10.322;2023-05-10T03:52:42;5.75;;;3.15;;
26864;SDS011;40618;51.166;10.322;2023-05-10T03:55:07;3.63;;;2.63;;
26864;SDS011;40618;51.166;10.322;2023-05-10T03:57:33;3.47;;;2.60;;
26864;SDS011;40618;51.166;10.322;2023-05-10T03:59:59;4.15;;;2.42;;
26864;SDS011;40618;51.166;10.322;2023-05-10T04:02:25;2.45;;;2.25;;
26864;SDS011;40618;51.166;10.322;2023-05-10T04:04:51;3.35;;;2.70;;
26864;SDS011;40618;51.166;10.322;2023-05-10T04:07:16;6.25;;;2.60;;
26864;SDS011;40618;51.166;10.322;2023-05-10T04:09:42;2.78;;;2.47;;
26864;SDS011;40618;51.166;10.322;2023-05-10T04:12:08;2.97;;;2.40;;
26864;SDS011;40618;51.166;10.322;2023-05-10T04:14:34;4.43;;;2.33;;
26864;SDS011;40618;51.166;10.322;2023-05-10T04:17:00;3.67;;;2.55;;
26864;SDS011;40618;51.166;10.322;2023-05-10T04:19:29;3.17;;;2.50;;
26864;SDS011;40618;51.166;10.322;2023-05-10T04:21:58;5.00;;;2.65;;
26864;SDS011;40618;51.166;10.322;2023-05-10T04:24:24;3.10;;;2.55;;
26864;SDS011;40618;51.166;10.322;2023-05-10T04:26:50;3.40;;;2.47;;
26864;SDS011;40618;51.166;10.322;2023-05-10T04:29:16;2.97;;;2.28;;
26864;SDS011;40618;51.166;10.322;2023-05-10T04:31:41;2.72;;;2.50;;
26864;SDS011;40618;51.166;10.322;2023-05-10T04:34:07;3.45;;;2.53;;
26864;SDS011;40618;51.166;10.322;2023-05-10T04:36:32;3.58;;;2.83;;
26864;SDS011;40618;51.166;10.322;2023-05-10T04:39:00;3.67;;;2.80;;
26864;SDS011;40618;51.166;10.322;2023-05-10T04:41:27;3.50;;;2.58;;
26864;SDS011;40618;51.166;10.322;2023-05-10T04:43:53;4.18;;;2.35;;
26864;SDS011;40618;51.166;10.322;2023-05-10T04:46:19;3.95;;;2.78;;
26864;SDS011;40618;51.166;10.322;2023-05-10T04:48:45;5.38;;;2.90;;
26864;SDS011;40618;51.166;10.322;2023-05-10T04:51:10;3.33;;;3.03;;
26864;SDS011;40618;51.166;10.322;2023-05-10T04:53:37;3.72;;;3.08;;
26864;SDS011;40618;51.166;10.322;2023-05-10T04:56:02;3.42;;;2.70;;
26864;SDS011;40618;51.166;10.322;2023-05-10T04:58:28;3.85;;;3.17;;
26864;SDS011;40618;51.166;10.322;2023-05-10T05:00:54;3.58;;;2.50;;
26864;SDS011;40618;51.166;10.322;2023-05-10T05:03:20;3.88;;;2.95;;
26864;SDS011;40618;51.166;10.322;2023-05-10T05:05:45;3.35;;;3.03;;
26864;SDS011;40618;51.166;10.322;2023-05-10T05:08:11;2.72;;;2.50;;
26864;SDS011;40618;51.166;10.322;2023-05-10T05:10:37;2.75;;;2.33;;
26864;SDS011;40618;51.166;10.322;2023-05-10T05:13:03;4.82;;;2.53;;
26864;SDS011;40618;51.166;10.322;2023-05-10T05:15:28;3.33;;;2.75;;
26864;SDS011;40618;51.166;10.322;2023-05-10T05:17:55;3.50;;;3.20;;
26864;SDS011;40618;51.166;10.322;2023-05-10T05:20:21;3.00;;;2.60;;
26864;SDS011;40618;51.166;10.322;2023-05-10T05:22:47;5.82;;;3.35;;
26864;SDS011;40618;51.166;10.322;2023-05-10T05:25:12;3.45;;;3.15;;
26864;SDS011;40618;51.166;10.322;2023-05-10T05:27:38;3.17;;;2.40;;
26864;SDS011;40618;51.166;10.322;2023-05-10T05:30:04;3.88;;;2.95;;
26864;SDS011;40618;51.166;10.322;2023-05-10T05:32:30;4.00;;;2.30;;
26864;SDS011;40618;51.166;10.322;2023-05-10T05:34:56;2.58;;;2.13;;
26864;SDS011;40618;51.166;10.322;2023-05-10T05:37:21;2.63;;;2.20;;
26864;SDS011;40618;51.166;10.322;2023-05-10T05:39:47;2.58;;;2.15;;
26864;SDS011;40618;51.166;10.322;2023-05-10T05:42:13;2.00;;;1.80;;
26864;SDS011;40618;51.166;10.322;2023-05-10T05:44:41;2.28;;;2.03;;
26864;SDS011;40618;51.166;10.322;2023-05-10T05:47:07;2.13;;;1.92;;
26864;SDS011;40618;51.166;10.322;2023-05-10T05:49:32;2.85;;;2.25;;
26864;SDS011;40618;51.166;10.322;2023-05-10T05:51:59;3.65;;;2.83;;
26864;SDS011;40618;51.166;10.322;2023-05-10T05:54:28;2.15;;;1.95;;
26864;SDS011;40618;51.166;10.322;2023-05-10T05:56:58;1.95;;;1.77;;
26864;SDS011;40618;51.166;10.322;2023-05-10T05:59:25;2.03;;;1.83;;
26864;SDS011;40618;51.166;10.322;2023-05-10T06:01:51;2.28;;;1.80;;
26864;SDS011;40618;51.166;10.322;2023-05-10T06:04:17;2.47;;;1.90;;
26864;SDS011;40618;51.166;10.322;2023-05-10T06:06:44;1.70;;;1.60;;
26864;SDS011;40618;51.166;10.322;2023-05-10T06:09:10;1.75;;;1.65;;
26864;SDS011;40618;51.166;10.322;2023-05-10T06:11:36;4.32;;;2.00;;
26864;SDS011;40618;51.166;10.322;2023-05-10T06:14:03;2.63;;;2.10;;
26864;SDS011;40618;51.166;10.322;2023-05-10T06:16:31;1.77;;;1.65;;
26864;SDS011;40618;51.166;10.322;2023-05-10T06:18:57;2.35;;;1.63;;
26864;SDS011;40618;51.166;10.322;2023-05-10T06:21:23;1.92;;;1.73;;
26864;SDS011;40618;51.166;10.322;2023-05-10T06:23:48;2.65;;;1.58;;
26864;SDS011;40618;51.166;10.322;2023-05-10T06:26:14;1.98;;;1.83;;
26864;SDS011;40618;51.166;10.322;2023-05-10T06:28:39;1.83;;;1.67;;
26864;SDS011;40618;51.166;10.322;2023-05-10T06:31:06;2.50;;;1.70;;
26864;SDS011;40618;51.166;10.322;2023-05-10T06:33:32;2.40;;;1.95;;
26864;SDS011;40618;51.166;10.322;2023-05-10T06:35:58;1.80;;;1.67;;
26864;SDS011;40618;51.166;10.322;2023-05-10T06:38:24;2.45;;;1.77;;
26864;SDS011;40618;51.166;10.322;2023-05-10T06:40:50;2.47;;;1.75;;
26864;SDS011;40618;51.166;10.322;2023-05-10T06:43:16;1.67;;;1.58;;
26864;SDS011;40618;51.166;10.322;2023-05-10T06:45:42;1.98;;;1.77;;
26864;SDS011;40618;51.166;10.322;2023-05-10T06:48:08;2.03;;;1.83;;
26864;SDS011;40618;51.166;10.322;2023-05-10T06:50:33;1.90;;;1.63;;
26864;SDS011;40618;51.166;10.322;2023-05-10T06:52:59;1.60;;;1.50;;
26864;SDS011;40618;51.166;10.322;2023-05-10T06:55:26;1.48;;;1.30;;
26864;SDS011;40618;51.166;10.322;2023-05-10T06:57:53;2.15;;;1.63;;
26864;SDS011;40618;51.166;10.322;2023-05-10T07:00:19;3.75;;;2.30;;
26864;SDS011;40618;51.166;10.322;2023-05-10T07:02:45;3.78;;;1.58;;
26864;SDS011;40618;51.166;10.322;2023-05-10T07:05:12;1.75;;;1.65;;
26864;SDS011;40618;51.166;10.322;2023-05-10T07:07:38;1.30;;;1.20;;
26864;SDS011;40618;51.166;10.322;2023-05-10T07:10:04;1.50;;;1.40;;
26864;SDS011;40618;51.166;10.322;2023-05-10T07:12:30;1.95;;;1.52;;
26864;SDS011;40618;51.166;10.322;2023-05-10T07:14:56;2.47;;;1.80;;
26864;SDS011;40618;51.166;10.322;2023-05-10T07:17:22;3.25;;;1.52;;
26864;SDS011;40618;51.166;10.322;2023-05-10T07:19:47;5.10;;;3.25;;
26864;SDS011;40618;51.166;10.322;2023-05-10T07:22:13;18.88;;;12.00;;
26864;SDS011;40618;51.166;10.322;2023-05-10T07:24:40;13.25;;;9.27;;
26864;SDS011;40618;51.166;10.322;2023-05-10T07:27:05;7.82;;;5.93;;
26864;SDS011;40618;51.166;10.322;2023-05-10T07:29:31;5.97;;;4.85;;
26864;SDS011;40618;51.166;10.322;2023-05-10T07:31:58;2.00;;;1.70;;
26864;SDS011;40618;51.166;10.322;2023-05-10T07:34:23;0.75;;;0.57;;
26864;SDS011;40618;51.166;10.322;2023-05-10T07:36:49;0.50;;;0.50;;
26864;SDS011;40618;51.166;10.322;2023-05-10T07:39:15;0.28;;;0.20;;
26864;SDS011;40618;51.166;10.322;2023-05-10T07:41:41;0.38;;;0.25;;
26864;SDS011;40618;51.166;10.322;2023-05-10T07:44:07;0.10;;;0.10;;
26864;SDS011;40618;51.166;10.322;2023-05-10T07:46:32;1.30;;;0.30;;
26864;SDS011;40618;51.166;10.322;2023-05-10T07:48:58;0.30;;;0.22;;
26864;SDS011;40618;51.166;10.322;2023-05-10T07:51:24;0.10;;;0.10;;
26864;SDS011;40618;51.166;10.322;2023-05-10T07:53:49;0.47;;;0.32;;
26864;SDS011;40618;51.166;10.322;2023-05-10T07:56:25;0.32;;;0.20;;
26864;SDS011;40618;51.166;10.322;2023-05-10T07:58:57;0.10;;;0.10;;
26864;SDS011;40618;51.166;10.322;2023-05-10T08:01:29;0.00;;;0.00;;
26864;SDS011;40618;51.166;10.322;2023-05-10T08:03:59;0.20;;;0.20;;
26864;SDS011;40618;51.166;10.322;2023-05-10T08:06:26;0.15;;;0.10;;
26864;SDS011;40618;51.166;10.322;2023-05-10T08:08:54;0.13;;;0.13;;
26864;SDS011;40618;51.166;10.322;2023-05-10T08:11:21;0.00;;;0.00;;
26864;SDS011;40618;51.166;10.322;2023-05-10T08:13:47;0.20;;;0.15;;
26864;SDS011;40618;51.166;10.322;2023-05-10T08:16:15;0.40;;;0.30;;
26864;SDS011;40618;51.166;10.322;2023-05-10T08:18:43;0.00;;;0.00;;
26864;SDS011;40618;51.166;10.322;2023-05-10T08:21:11;0.10;;;0.10;;
26864;SDS011;40618;51.166;10.322;2023-05-10T08:23:38;1.52;;;0.50;;
26864;SDS011;40618;51.166;10.322;2023-05-10T08:26:04;0.80;;;0.40;;
26864;SDS011;40618;51.166;10.322;2023-05-10T08:28:30;0.70;;;0.57;;
26864;SDS011;40618;51.166;10.322;2023-05-10T08:30:55;1.25;;;0.40;;
26864;SDS011;40618;51.166;10.322;2023-05-10T08:33:21;0.55;;;0.52;;
26864;SDS011;40618;51.166;10.322;2023-05-10T08:35:47;0.60;;;0.60;;
26864;SDS011;40618;51.166;10.322;2023-05-10T08:38:13;0.63;;;0.57;;
26864;SDS011;40618;51.166;10.322;2023-05-10T08:40:42;0.82;;;0.70;;
26864;SDS011;40618;51.166;10.322;2023-05-10T08:45:37;0.30;;;0.30;;
26864;SDS011;40618;51.166;10.322;2023-05-10T08:48:06;1.75;;;0.20;;
26864;SDS011;40618;51.166;10.322;2023-05-10T08:50:37;0.32;;;0.30;;
26864;SDS011;40618;51.166;10.322;2023-05-10T08:53:11;1.38;;;0.50;;
26864;SDS011;40618;51.166;10.322;2023-05-10T08:55:39;0.25;;;0.20;;
26864;SDS011;40618;51.166;10.322;2023-05-10T08:58:08;0.30;;;0.30;;
26864;SDS011;40618;51.166;10.322;2023-05-10T09:00:34;0.60;;;0.50;;
26864;SDS011;40618;51.166;10.322;2023-05-10T09:03:02;0.50;;;0.40;;
26864;SDS011;40618;51.166;10.322;2023-05-10T09:05:31;0.50;;;0.40;;
26864;SDS011;40618;51.166;10.322;2023-05-10T09:07:57;0.20;;;0.20;;
26864;SDS011;40618;51.166;10.322;2023-05-10T09:10:25;1.75;;;0.30;;
26864;SDS011;40618;51.166;10.322;2023-05-10T09:12:53;1.75;;;0.35;;
26864;SDS011;40618;51.166;10.322;2023-05-10T09:15:21;0.30;;;0.30;;
26864;SDS011;40618;51.166;10.322;2023-05-10T09:17:47;0.85;;;0.40;;
26864;SDS011;40618;51.166;10.322;2023-05-10T09:20:14;1.30;;;0.50;;
26864;SDS011;40618;51.166;10.322;2023-05-10T09:22:42;0.50;;;0.30;;
26864;SDS011;40618;51.166;10.322;2023-05-10T09:25:09;1.92;;;0.73;;
26864;SDS011;40618;51.166;10.322;2023-05-10T09:27:40;0.82;;;0.70;;
26864;SDS011;40618;51.166;10.322;2023-05-10T09:30:10;1.08;;;0.50;;
26864;SDS011;40618;51.166;10.322;2023-05-10T09:32:48;1.75;;;0.82;;
26864;SDS011;40618;51.166;10.322;2023-05-10T09:35:17;2.97;;;0.85;;
26864;SDS011;40618;51.166;10.322;2023-05-10T09:37:45;0.40;;;0.40;;
26864;SDS011;40618;51.166;10.322;2023-05-10T09:40:15;0.50;;;0.45;;
26864;SDS011;40618;51.166;10.322;2023-05-10T09:45:27;1.85;;;0.40;;
26864;SDS011;40618;51.166;10.322;2023-05-10T09:47:57;0.20;;;0.20;;
26864;SDS011;40618;51.166;10.322;2023-05-10T09:50:24;1.05;;;0.10;;
26864;SDS011;40618;51.166;10.322;2023-05-10T09:52:51;0.55;;;0.40;;
26864;SDS011;40618;51.166;10.322;2023-05-10T09:55:22;0.63;;;0.20;;
26864;SDS011;40618;51.166;10.322;2023-05-10T09:57:58;0.40;;;0.30;;
26864;SDS011;40618;51.166;10.322;2023-05-10T10:00:25;1.05;;;0.55;;
26864;SDS011;40618;51.166;10.322;2023-05-10T10:02:55;3.97;;;0.38;;
26864;SDS011;40618;51.166;10.322;2023-05-10T10:05:29;1.40;;;1.00;;
26864;SDS011;40618;51.166;10.322;2023-05-10T10:08:01;1.00;;;0.40;;
26864;SDS011;40618;51.166;10.322;2023-05-10T10:10:29;0.82;;;0.40;;
26864;SDS011;40618;51.166;10.322;2023-05-10T10:12:57;0.63;;;0.52;;
26864;SDS011;40618;51.166;10.322;2023-05-10T10:15:23;0.43;;;0.40;;
26864;SDS011;40618;51.166;10.322;2023-05-10T10:17:50;0.43;;;0.38;;
26864;SDS011;40618;51.166;10.322;2023-05-10T10:20:18;0.73;;;0.50;;
26864;SDS011;40618;51.166;10.322;2023-05-10T10:22:45;0.40;;;0.40;;
26864;SDS011;40618;51.166;10.322;2023-05-10T10:25:12;0.40;;;0.32;;
26864;SDS011;40618;51.166;10.322;2023-05-10T10:27:45;0.43;;;0.43;;
26864;SDS011;40618;51.166;10.322;2023-05-10T10:36:16;0.50;;;0.50;;
26864;SDS011;40618;51.166;10.322;2023-05-10T10:52:23;0.50;;;0.50;;
26864;SDS011;40618;51.166;10.322;2023-05-10T10:55:00;1.13;;;0.70;;
26864;SDS011;40618;51.166;10.322;2023-05-10T11:00:26;0.77;;;0.70;;
26864;SDS011;40618;51.166;10.322;2023-05-10T11:05:45;0.82;;;0.75;;
26864;SDS011;40618;51.166;10.322;2023-05-10T11:08:26;15.10;;;2.03;;
26864;SDS011;40618;51.166;10.322;2023-05-10T11:16:10;1.67;;;0.73;;
26864;SDS011;40618;51.166;10.322;2023-05-10T11:21:30;1.08;;;0.35;;
26864;SDS011;40618;51.166;10.322;2023-05-10T11:23:58;0.57;;;0.40;;
26864;SDS011;40618;51.166;10.322;2023-05-10T11:26:30;1.27;;;0.40;;
26864;SDS011;40618;51.166;10.322;2023-05-10T11:28:58;1.80;;;0.40;;
26864;SDS011;40618;51.166;10.322;2023-05-10T11:31:26;1.45;;;0.65;;
26864;SDS011;40618;51.166;10.322;2023-05-10T11:33:54;1.00;;;0.63;;
26864;SDS011;40618;51.166;10.322;2023-05-10T11:36:23;0.73;;;0.60;;
26864;SDS011;40618;51.166;10.322;2023-05-10T11:41:19;0.93;;;0.60;;
26864;SDS011;40618;51.166;10.322;2023-05-10T11:43:52;1.30;;;0.73;;
26864;SDS011;40618;51.166;10.322;2023-05-10T11:46:20;0.40;;;0.40;;
26864;SDS011;40618;51.166;10.322;2023-05-10T11:48:49;0.68;;;0.60;;
26864;SDS011;40618;51.166;10.322;2023-05-10T11:51:21;0.73;;;0.65;;
26864;SDS011;40618;51.166;10.322;2023-05-10T11:53:49;0.57;;;0.57;;
26864;SDS011;40618;51.166;10.322;2023-05-10T11:56:18;2.47;;;0.73;;
26864;SDS011;40618;51.166;10.322;2023-05-10T11:58:44;6.47;;;0.75;;
26864;SDS011;40618;51.166;10.322;2023-05-10T12:01:11;0.93;;;0.57;;
26864;SDS011;40618;51.166;10.322;2023-05-10T12:03:37;1.48;;;0.52;;
26864;SDS011;40618;51.166;10.322;2023-05-10T12:06:04;1.20;;;0.80;;
26864;SDS011;40618;51.166;10.322;2023-05-10T12:08:32;1.13;;;0.90;;
26864;SDS011;40618;51.166;10.322;2023-05-10T12:11:04;0.88;;;0.63;;
26864;SDS011;40618;51.166;10.322;2023-05-10T12:13:37;1.40;;;0.60;;
26864;SDS011;40618;51.166;10.322;2023-05-10T12:16:17;1.02;;;0.40;;
26864;SDS011;40618;51.166;10.322;2023-05-10T12:18:48;1.50;;;0.95;;
26864;SDS011;40618;51.166;10.322;2023-05-10T12:21:21;0.73;;;0.63;;
26864;SDS011;40618;51.166;10.322;2023-05-10T12:23:48;0.70;;;0.60;;
26864;SDS011;40618;51.166;10.322;2023-05-10T12:26:17;0.63;;;0.50;;
26864;SDS011;40618;51.166;10.322;2023-05-10T12:28:43;1.08;;;0.73;;
26864;SDS011;40618;51.166;10.322;2023-05-10T12:31:09;0.88;;;0.60;;
26864;SDS011;40618;51.166;10.322;2023-05-10T12:33:35;0.90;;;0.70;;
26864;SDS011;40618;51.166;10.322;2023-05-10T12:36:04;2.15;;;0.70;;
26864;SDS011;40618;51.166;10.322;2023-05-10T12:38:32;0.75;;;0.70;;
26864;SDS011;40618;51.166;10.322;2023-05-10T12:41:04;1.38;;;0.60;;
26864;SDS011;40618;51.166;10.322;2023-05-10T12:43:35;1.27;;;0.65;;
26864;SDS011;40618;51.166;10.322;2023-05-10T12:46:19;0.57;;;0.52;;
26864;SDS011;40618;51.166;10.322;2023-05-10T12:48:44;0.50;;;0.50;;
26864;SDS011;40618;51.166;10.322;2023-05-10T12:51:11;0.93;;;0.68;;
26864;SDS011;40618;51.166;10.322;2023-05-10T12:53:40;1.15;;;0.50;;
26864;SDS011;40618;51.166;10.322;2023-05-10T12:56:06;0.68;;;0.68;;
26864;SDS011;40618;51.166;10.322;2023-05-10T12:58:32;1.23;;;0.70;;
26864;SDS011;40618;51.166;10.322;2023-05-10T13:00:59;1.48;;;0.93;;
26864;SDS011;40618;51.166;10.322;2023-05-10T13:03:25;0.68;;;0.60;;
26864;SDS011;40618;51.166;10.322;2023-05-10T13:05:51;0.70;;;0.70;;
26864;SDS011;40618;51.166;10.322;2023-05-10T13:08:16;1.63;;;0.60;;
26864;SDS011;40618;51.166;10.322;2023-05-10T13:10:42;1.98;;;0.68;;
26864;SDS011;40618;51.166;10.322;2023-05-10T13:13:08;1.95;;;0.60;;
26864;SDS011;40618;51.166;10.322;2023-05-10T13:15:33;0.60;;;0.60;;
26864;SDS011;40618;51.166;10.322;2023-05-10T13:18:00;0.93;;;0.43;;
26864;SDS011;40618;51.166;10.322;2023-05-10T13:20:25;0.80;;;0.57;;
26864;SDS011;40618;51.166;10.322;2023-05-10T13:22:52;0.57;;;0.47;;
26864;SDS011;40618;51.166;10.322;2023-05-10T13:25:18;1.85;;;0.57;;
26864;SDS011;40618;51.166;10.322;2023-05-10T13:27:44;1.10;;;0.80;;
26864;SDS011;40618;51.166;10.322;2023-05-10T13:30:10;0.80;;;0.40;;
26864;SDS011;40618;51.166;10.322;2023-05-10T13:32:39;1.98;;;0.90;;
26864;SDS011;40618;51.166;10.322;2023-05-10T13:35:04;0.77;;;0.65;;
26864;SDS011;40618;51.166;10.322;2023-05-10T13:37:31;1.75;;;0.60;;
26864;SDS011;40618;51.166;10.322;2023-05-10T13:40:00;1.23;;;0.73;;
26864;SDS011;40618;51.166;10.322;2023-05-10T13:42:26;0.60;;;0.60;;
26864;SDS011;40618;51.166;10.322;2023-05-10T13:44:52;1.05;;;0.60;;
26864;SDS011;40618;51.166;10.322;2023-05-10T13:47:17;2.00;;;0.60;;
26864;SDS011;40618;51.166;10.322;2023-05-10T13:49:43;1.88;;;0.57;;
26864;SDS011;40618;51.166;10.322;2023-05-10T13:52:09;0.80;;;0.80;;
26864;SDS011;40618;51.166;10.322;2023-05-10T13:54:38;0.60;;;0.40;;
26864;SDS011;40618;51.166;10.322;2023-05-10T13:57:03;0.60;;;0.60;;
26864;SDS011;40618;51.166;10.322;2023-05-10T13:59:29;3.17;;;0.70;;
26864;SDS011;40618;51.166;10.322;2023-05-10T14:01:59;0.85;;;0.60;;
26864;SDS011;40618;51.166;10.322;2023-05-10T14:04:27;1.15;;;0.98;;
26864;SDS011;40618;51.166;10.322;2023-05-10T14:06:54;0.63;;;0.63;;
26864;SDS011;40618;51.166;10.322;2023-05-10T14:09:19;1.67;;;1.00;;
26864;SDS011;40618;51.166;10.322;2023-05-10T14:11:45;1.27;;;1.17;;
26864;SDS011;40618;51.166;10.322;2023-05-10T14:14:11;1.77;;;1.00;;
26864;SDS011;40618;51.166;10.322;2023-05-10T14:16:38;0.98;;;0.65;;
26864;SDS011;40618;51.166;10.322;2023-05-10T14:19:07;1.60;;;0.50;;
26864;SDS011;40618;51.166;10.322;2023-05-10T14:21:33;0.98;;;0.60;;
26864;SDS011;40618;51.166;10.322;2023-05-10T14:23:59;0.90;;;0.52;;
26864;SDS011;40618;51.166;10.322;2023-05-10T14:26:25;1.95;;;0.57;;
26864;SDS011;40618;51.166;10.322;2023-05-10T14:28:51;3.53;;;0.60;;
26864;SDS011;40618;51.166;10.322;2023-05-10T14:31:17;2.35;;;0.70;;
26864;SDS011;40618;51.166;10.322;2023-05-10T14:33:45;0.95;;;0.80;;
26864;SDS011;40618;51.166;10.322;2023-05-10T14:36:11;1.48;;;0.60;;
26864;SDS011;40618;51.166;10.322;2023-05-10T14:38:37;1.13;;;0.52;;
26864;SDS011;40618;51.166;10.322;2023-05-10T14:41:03;2.58;;;0.70;;
26864;SDS011;40618;51.166;10.322;2023-05-10T14:43:28;0.63;;;0.45;;
26864;SDS011;40618;51.166;10.322;2023-05-10T14:45:55;1.95;;;0.50;;
26864;SDS011;40618;51.166;10.322;2023-05-10T14:48:20;0.60;;;0.57;;
26864;SDS011;40618;51.166;10.322;2023-05-10T14:50:46;1.08;;;0.70;;
26864;SDS011;40618;51.166;10.322;2023-05-10T14:53:12;1.05;;;0.80;;
26864;SDS011;40618;51.166;10.322;2023-05-10T14:55:37;1.55;;;0.70;;
26864;SDS011;40618;51.166;10.322;2023-05-10T14:58:03;5.90;;;0.77;;
26864;SDS011;40618;51.166;10.322;2023-05-10T15:00:29;1.35;;;0.90;;
26864;SDS011;40618;51.166;10.322;2023-05-10T15:02:56;1.88;;;1.10;;
26864;SDS011;40618;51.166;10.322;2023-05-10T15:05:22;2.22;;;0.80;;
26864;SDS011;40618;51.166;10.322;2023-05-10T15:07:48;1.05;;;0.85;;
26864;SDS011;40618;51.166;10.322;2023-05-10T15:10:14;1.77;;;1.25;;
26864;SDS011;40618;51.166;10.322;2023-05-10T15:12:40;2.63;;;1.48;;
26864;SDS011;40618;51.166;10.322;2023-05-10T15:15:06;1.35;;;0.85;;
26864;SDS011;40618;51.166;10.322;2023-05-10T15:17:32;1.05;;;0.80;;
26864;SDS011;40618;51.166;10.322;2023-05-10T15:19:59;3.58;;;1.10;;
26864;SDS011;40618;51.166;10.322;2023-05-10T15:22:25;1.45;;;1.35;;
26864;SDS011;40618;51.166;10.322;2023-05-10T15:24:50;1.60;;;1.13;;
26864;SDS011;40618;51.166;10.322;2023-05-10T15:27:16;2.25;;;1.50;;
26864;SDS011;40618;51.166;10.322;2023-05-10T15:29:41;1.48;;;1.35;;
26864;SDS011;40618;51.166;10.322;2023-05-10T15:32:07;1.55;;;1.20;;
26864;SDS011;40618;51.166;10.322;2023-05-10T15:34:32;1.40;;;1.20;;
26864;SDS011;40618;51.166;10.322;2023-05-10T15:36:58;3.70;;;1.40;;
26864;SDS011;40618;51.166;10.322;2023-05-10T15:39:24;2.33;;;1.40;;